sensor_id;sensor_type;location;lat;lon;timestamp;P1;durP1;ratioP1;P2;durP2;ratioP2
28822;SDS011;15961;54.678;9.110;2024-02-21T00:01:33;48.25;;;8.93;;
28822;SDS011;15961;54.678;9.110;2024-02-21T00:04:19;39.45;;;8.80;;
28822;SDS011;15961;54.678;9.110;2024-02-21T00:07:04;31.75;;;7.55;;
28822;SDS011;15961;54.678;9.110;2024-02-21T00:09:50;36.45;;;8.15;;
28822;SDS011;15961;54.678;9.110;2024-02-21T00:12:36;40.58;;;8.80;;
28822;SDS011;15961;54.678;9.110;2024-02-21T00:15:21;30.60;;;8.35;;
28822;SDS011;15961;54.678;9.110;2024-02-21T00:18:07;28.95;;;8.15;;
28822;SDS011;15961;54.678;9.110;2024-02-21T00:20:53;26.75;;;7.13;;
28822;SDS011;15961;54.678;9.110;2024-02-21T00:23:39;32.65;;;8.98;;
28822;SDS011;15961;54.678;9.110;2024-02-21T00:26:24;22.95;;;6.38;;
28822;SDS011;15961;54.678;9.110;2024-02-21T00:29:11;31.15;;;7.55;;
28822;SDS011;15961;54.678;9.110;2024-02-21T00:31:56;40.08;;;7.68;;
28822;SDS011;15961;54.678;9.110;2024-02-21T00:34:43;28.90;;;6.78;;
28822;SDS011;15961;54.678;9.110;2024-02-21T00:37:29;33.33;;;9.38;;
28822;SDS011;15961;54.678;9.110;2024-02-21T00:40:14;25.08;;;6.38;;
28822;SDS011;15961;54.678;9.110;2024-02-21T00:43:05;29.80;;;7.95;;
28822;SDS011;15961;54.678;9.110;2024-02-21T00:45:50;39.63;;;7.72;;
28822;SDS011;15961;54.678;9.110;2024-02-21T00:48:36;37.47;;;7.65;;
28822;SDS011;15961;54.678;9.110;2024-02-21T00:51:22;34.90;;;9.13;;
28822;SDS011;15961;54.678;9.110;2024-02-21T00:54:07;40.55;;;8.77;;
28822;SDS011;15961;54.678;9.110;2024-02-21T00:56:53;27.23;;;6.82;;
28822;SDS011;15961;54.678;9.110;2024-02-21T00:59:39;32.10;;;6.50;;
28822;SDS011;15961;54.678;9.110;2024-02-21T01:02:24;27.95;;;7.72;;
28822;SDS011;15961;54.678;9.110;2024-02-21T01:05:10;23.35;;;7.82;;
28822;SDS011;15961;54.678;9.110;2024-02-21T01:07:55;26.58;;;7.13;;
28822;SDS011;15961;54.678;9.110;2024-02-21T01:10:41;35.15;;;6.53;;
28822;SDS011;15961;54.678;9.110;2024-02-21T01:13:27;19.23;;;6.25;;
28822;SDS011;15961;54.678;9.110;2024-02-21T01:16:13;36.05;;;7.28;;
28822;SDS011;15961;54.678;9.110;2024-02-21T01:18:58;23.52;;;6.07;;
28822;SDS011;15961;54.678;9.110;2024-02-21T01:21:44;23.83;;;6.38;;
28822;SDS011;15961;54.678;9.110;2024-02-21T01:24:29;27.85;;;6.00;;
28822;SDS011;15961;54.678;9.110;2024-02-21T01:27:15;27.60;;;6.47;;
28822;SDS011;15961;54.678;9.110;2024-02-21T01:30:01;21.10;;;5.80;;
28822;SDS011;15961;54.678;9.110;2024-02-21T01:32:47;19.75;;;6.88;;
28822;SDS011;15961;54.678;9.110;2024-02-21T01:35:34;25.38;;;6.65;;
28822;SDS011;15961;54.678;9.110;2024-02-21T01:38:19;29.92;;;6.90;;
28822;SDS011;15961;54.678;9.110;2024-02-21T01:41:05;25.58;;;5.68;;
28822;SDS011;15961;54.678;9.110;2024-02-21T01:43:51;30.67;;;7.28;;
28822;SDS011;15961;54.678;9.110;2024-02-21T01:46:37;22.00;;;7.05;;
28822;SDS011;15961;54.678;9.110;2024-02-21T01:49:23;26.98;;;7.22;;
28822;SDS011;15961;54.678;9.110;2024-02-21T01:52:08;26.95;;;8.90;;
28822;SDS011;15961;54.678;9.110;2024-02-21T01:54:56;24.95;;;7.10;;
28822;SDS011;15961;54.678;9.110;2024-02-21T01:57:43;27.98;;;8.05;;
28822;SDS011;15961;54.678;9.110;2024-02-21T02:00:30;34.25;;;8.38;;
28822;SDS011;15961;54.678;9.110;2024-02-21T02:03:16;22.08;;;6.40;;
28822;SDS011;15961;54.678;9.110;2024-02-21T02:06:02;17.15;;;6.28;;
28822;SDS011;15961;54.678;9.110;2024-02-21T02:08:49;26.15;;;5.93;;
28822;SDS011;15961;54.678;9.110;2024-02-21T02:11:34;20.02;;;5.85;;
28822;SDS011;15961;54.678;9.110;2024-02-21T02:14:20;20.92;;;6.57;;
28822;SDS011;15961;54.678;9.110;2024-02-21T02:17:06;19.08;;;5.78;;
28822;SDS011;15961;54.678;9.110;2024-02-21T02:19:52;22.00;;;5.30;;
28822;SDS011;15961;54.678;9.110;2024-02-21T02:22:38;17.13;;;5.22;;
28822;SDS011;15961;54.678;9.110;2024-02-21T02:25:24;29.23;;;6.55;;
28822;SDS011;15961;54.678;9.110;2024-02-21T02:28:11;35.40;;;5.93;;
28822;SDS011;15961;54.678;9.110;2024-02-21T02:30:56;29.90;;;6.53;;
28822;SDS011;15961;54.678;9.110;2024-02-21T02:33:42;23.85;;;5.82;;
28822;SDS011;15961;54.678;9.110;2024-02-21T02:36:31;23.70;;;5.28;;
28822;SDS011;15961;54.678;9.110;2024-02-21T02:42:59;17.58;;;5.43;;
28822;SDS011;15961;54.678;9.110;2024-02-21T02:45:45;32.58;;;6.22;;
28822;SDS011;15961;54.678;9.110;2024-02-21T02:48:31;30.92;;;6.97;;
28822;SDS011;15961;54.678;9.110;2024-02-21T02:51:16;27.50;;;6.47;;
28822;SDS011;15961;54.678;9.110;2024-02-21T02:54:03;23.35;;;7.10;;
28822;SDS011;15961;54.678;9.110;2024-02-21T02:56:49;49.40;;;6.95;;
28822;SDS011;15961;54.678;9.110;2024-02-21T02:59:35;38.67;;;7.65;;
28822;SDS011;15961;54.678;9.110;2024-02-21T03:02:21;38.08;;;6.82;;
28822;SDS011;15961;54.678;9.110;2024-02-21T03:05:16;27.27;;;6.68;;
28822;SDS011;15961;54.678;9.110;2024-02-21T03:08:03;19.85;;;5.75;;
28822;SDS011;15961;54.678;9.110;2024-02-21T03:10:52;30.17;;;5.20;;
28822;SDS011;15961;54.678;9.110;2024-02-21T03:13:37;24.38;;;4.57;;
28822;SDS011;15961;54.678;9.110;2024-02-21T03:16:23;32.97;;;6.00;;
28822;SDS011;15961;54.678;9.110;2024-02-21T03:19:09;18.85;;;5.13;;
28822;SDS011;15961;54.678;9.110;2024-02-21T03:21:55;25.02;;;6.30;;
28822;SDS011;15961;54.678;9.110;2024-02-21T03:24:40;34.90;;;6.28;;
28822;SDS011;15961;54.678;9.110;2024-02-21T03:27:26;35.03;;;6.70;;
28822;SDS011;15961;54.678;9.110;2024-02-21T03:30:12;30.52;;;5.57;;
28822;SDS011;15961;54.678;9.110;2024-02-21T03:32:58;31.70;;;5.03;;
28822;SDS011;15961;54.678;9.110;2024-02-21T03:35:43;17.08;;;4.50;;
28822;SDS011;15961;54.678;9.110;2024-02-21T03:38:29;22.63;;;5.07;;
28822;SDS011;15961;54.678;9.110;2024-02-21T03:41:15;37.42;;;5.85;;
28822;SDS011;15961;54.678;9.110;2024-02-21T03:44:00;21.55;;;4.25;;
28822;SDS011;15961;54.678;9.110;2024-02-21T03:46:46;15.35;;;5.05;;
28822;SDS011;15961;54.678;9.110;2024-02-21T03:49:32;14.40;;;4.18;;
28822;SDS011;15961;54.678;9.110;2024-02-21T03:52:17;28.55;;;4.30;;
28822;SDS011;15961;54.678;9.110;2024-02-21T03:55:03;17.15;;;3.95;;
28822;SDS011;15961;54.678;9.110;2024-02-21T03:57:49;22.08;;;4.70;;
28822;SDS011;15961;54.678;9.110;2024-02-21T04:00:35;24.65;;;4.68;;
28822;SDS011;15961;54.678;9.110;2024-02-21T04:03:20;32.85;;;4.32;;
28822;SDS011;15961;54.678;9.110;2024-02-21T04:06:06;30.58;;;5.55;;
28822;SDS011;15961;54.678;9.110;2024-02-21T04:08:52;22.85;;;4.45;;
28822;SDS011;15961;54.678;9.110;2024-02-21T04:11:37;32.42;;;4.25;;
28822;SDS011;15961;54.678;9.110;2024-02-21T04:14:23;25.15;;;6.13;;
28822;SDS011;15961;54.678;9.110;2024-02-21T04:17:08;39.47;;;4.93;;
28822;SDS011;15961;54.678;9.110;2024-02-21T04:19:56;36.67;;;5.50;;
28822;SDS011;15961;54.678;9.110;2024-02-21T04:22:47;34.10;;;5.07;;
28822;SDS011;15961;54.678;9.110;2024-02-21T04:25:33;16.15;;;5.03;;
28822;SDS011;15961;54.678;9.110;2024-02-21T04:28:18;26.90;;;5.68;;
28822;SDS011;15961;54.678;9.110;2024-02-21T04:31:04;37.65;;;6.22;;
28822;SDS011;15961;54.678;9.110;2024-02-21T04:33:49;26.75;;;4.97;;
28822;SDS011;15961;54.678;9.110;2024-02-21T04:36:35;30.05;;;7.35;;
28822;SDS011;15961;54.678;9.110;2024-02-21T04:39:21;23.85;;;4.75;;
28822;SDS011;15961;54.678;9.110;2024-02-21T04:42:06;32.25;;;6.50;;
28822;SDS011;15961;54.678;9.110;2024-02-21T04:44:52;34.03;;;4.82;;
28822;SDS011;15961;54.678;9.110;2024-02-21T04:47:38;19.88;;;4.22;;
28822;SDS011;15961;54.678;9.110;2024-02-21T04:50:24;39.78;;;5.80;;
28822;SDS011;15961;54.678;9.110;2024-02-21T04:53:09;33.33;;;4.38;;
28822;SDS011;15961;54.678;9.110;2024-02-21T04:55:55;31.50;;;6.28;;
28822;SDS011;15961;54.678;9.110;2024-02-21T04:58:41;34.47;;;6.40;;
28822;SDS011;15961;54.678;9.110;2024-02-21T05:01:27;30.92;;;4.40;;
28822;SDS011;15961;54.678;9.110;2024-02-21T05:04:13;28.52;;;4.88;;
28822;SDS011;15961;54.678;9.110;2024-02-21T05:06:59;19.52;;;4.80;;
28822;SDS011;15961;54.678;9.110;2024-02-21T05:09:45;27.92;;;4.63;;
28822;SDS011;15961;54.678;9.110;2024-02-21T05:12:31;22.73;;;4.35;;
28822;SDS011;15961;54.678;9.110;2024-02-21T05:15:17;23.08;;;4.82;;
28822;SDS011;15961;54.678;9.110;2024-02-21T05:18:02;32.28;;;4.95;;
28822;SDS011;15961;54.678;9.110;2024-02-21T05:20:48;22.08;;;4.43;;
28822;SDS011;15961;54.678;9.110;2024-02-21T05:23:34;27.95;;;5.80;;
28822;SDS011;15961;54.678;9.110;2024-02-21T05:26:20;30.90;;;5.40;;
28822;SDS011;15961;54.678;9.110;2024-02-21T05:29:14;22.08;;;4.80;;
28822;SDS011;15961;54.678;9.110;2024-02-21T05:32:00;33.47;;;4.35;;
28822;SDS011;15961;54.678;9.110;2024-02-21T05:34:48;13.55;;;4.10;;
28822;SDS011;15961;54.678;9.110;2024-02-21T05:37:34;22.23;;;4.85;;
28822;SDS011;15961;54.678;9.110;2024-02-21T05:40:20;39.20;;;5.95;;
28822;SDS011;15961;54.678;9.110;2024-02-21T05:43:07;35.90;;;7.07;;
28822;SDS011;15961;54.678;9.110;2024-02-21T05:45:53;38.80;;;5.55;;
28822;SDS011;15961;54.678;9.110;2024-02-21T05:48:38;20.50;;;4.40;;
28822;SDS011;15961;54.678;9.110;2024-02-21T05:51:24;39.63;;;5.93;;
28822;SDS011;15961;54.678;9.110;2024-02-21T05:54:09;30.40;;;4.72;;
28822;SDS011;15961;54.678;9.110;2024-02-21T05:56:55;18.55;;;4.18;;
28822;SDS011;15961;54.678;9.110;2024-02-21T05:59:42;23.95;;;5.88;;
28822;SDS011;15961;54.678;9.110;2024-02-21T06:02:29;25.65;;;4.30;;
28822;SDS011;15961;54.678;9.110;2024-02-21T06:05:14;27.88;;;4.75;;
28822;SDS011;15961;54.678;9.110;2024-02-21T06:08:00;32.10;;;5.65;;
28822;SDS011;15961;54.678;9.110;2024-02-21T06:10:45;22.02;;;4.60;;
28822;SDS011;15961;54.678;9.110;2024-02-21T06:13:31;22.48;;;4.15;;
28822;SDS011;15961;54.678;9.110;2024-02-21T06:16:17;22.25;;;4.28;;
28822;SDS011;15961;54.678;9.110;2024-02-21T06:19:02;33.20;;;4.43;;
28822;SDS011;15961;54.678;9.110;2024-02-21T06:21:48;33.95;;;4.85;;
28822;SDS011;15961;54.678;9.110;2024-02-21T06:24:35;16.63;;;4.38;;
28822;SDS011;15961;54.678;9.110;2024-02-21T06:27:21;29.00;;;4.07;;
28822;SDS011;15961;54.678;9.110;2024-02-21T06:30:07;19.60;;;3.97;;
28822;SDS011;15961;54.678;9.110;2024-02-21T06:32:53;31.17;;;5.65;;
28822;SDS011;15961;54.678;9.110;2024-02-21T06:35:41;48.72;;;5.88;;
28822;SDS011;15961;54.678;9.110;2024-02-21T06:38:28;34.92;;;4.43;;
28822;SDS011;15961;54.678;9.110;2024-02-21T06:41:17;18.70;;;4.13;;
28822;SDS011;15961;54.678;9.110;2024-02-21T06:44:04;33.25;;;4.32;;
28822;SDS011;15961;54.678;9.110;2024-02-21T06:46:50;18.25;;;4.30;;
28822;SDS011;15961;54.678;9.110;2024-02-21T06:49:35;27.35;;;4.45;;
28822;SDS011;15961;54.678;9.110;2024-02-21T06:52:22;14.20;;;4.38;;
28822;SDS011;15961;54.678;9.110;2024-02-21T06:55:09;24.33;;;3.92;;
28822;SDS011;15961;54.678;9.110;2024-02-21T06:57:54;30.90;;;5.13;;
28822;SDS011;15961;54.678;9.110;2024-02-21T07:00:41;27.63;;;5.00;;
28822;SDS011;15961;54.678;9.110;2024-02-21T07:03:27;31.83;;;4.78;;
28822;SDS011;15961;54.678;9.110;2024-02-21T07:06:13;24.35;;;4.22;;
28822;SDS011;15961;54.678;9.110;2024-02-21T07:08:59;22.02;;;3.50;;
28822;SDS011;15961;54.678;9.110;2024-02-21T07:11:44;26.13;;;5.28;;
28822;SDS011;15961;54.678;9.110;2024-02-21T07:14:31;19.40;;;3.33;;
28822;SDS011;15961;54.678;9.110;2024-02-21T07:17:17;22.90;;;4.43;;
28822;SDS011;15961;54.678;9.110;2024-02-21T07:20:03;25.90;;;4.90;;
28822;SDS011;15961;54.678;9.110;2024-02-21T07:22:49;25.70;;;5.10;;
28822;SDS011;15961;54.678;9.110;2024-02-21T07:25:35;23.30;;;4.68;;
28822;SDS011;15961;54.678;9.110;2024-02-21T07:28:21;33.30;;;4.88;;
28822;SDS011;15961;54.678;9.110;2024-02-21T07:31:06;29.67;;;5.47;;
28822;SDS011;15961;54.678;9.110;2024-02-21T07:33:52;30.83;;;4.78;;
28822;SDS011;15961;54.678;9.110;2024-02-21T07:36:37;35.13;;;4.40;;
28822;SDS011;15961;54.678;9.110;2024-02-21T07:39:24;23.85;;;4.88;;
28822;SDS011;15961;54.678;9.110;2024-02-21T07:42:09;23.42;;;5.43;;
28822;SDS011;15961;54.678;9.110;2024-02-21T07:44:55;21.17;;;4.63;;
28822;SDS011;15961;54.678;9.110;2024-02-21T07:47:42;24.05;;;6.72;;
28822;SDS011;15961;54.678;9.110;2024-02-21T07:50:27;30.33;;;5.05;;
28822;SDS011;15961;54.678;9.110;2024-02-21T07:53:14;25.90;;;4.60;;
28822;SDS011;15961;54.678;9.110;2024-02-21T07:56:00;24.65;;;4.80;;
28822;SDS011;15961;54.678;9.110;2024-02-21T07:58:46;28.05;;;4.75;;
28822;SDS011;15961;54.678;9.110;2024-02-21T08:01:34;28.70;;;4.25;;
28822;SDS011;15961;54.678;9.110;2024-02-21T08:04:20;32.15;;;4.05;;
28822;SDS011;15961;54.678;9.110;2024-02-21T08:07:05;15.52;;;4.40;;
28822;SDS011;15961;54.678;9.110;2024-02-21T08:09:51;22.20;;;4.78;;
28822;SDS011;15961;54.678;9.110;2024-02-21T08:12:37;20.40;;;5.32;;
28822;SDS011;15961;54.678;9.110;2024-02-21T08:15:22;26.75;;;4.38;;
28822;SDS011;15961;54.678;9.110;2024-02-21T08:18:13;20.23;;;4.13;;
28822;SDS011;15961;54.678;9.110;2024-02-21T08:20:59;27.27;;;5.03;;
28822;SDS011;15961;54.678;9.110;2024-02-21T08:23:44;26.98;;;4.38;;
28822;SDS011;15961;54.678;9.110;2024-02-21T08:26:30;31.35;;;4.03;;
28822;SDS011;15961;54.678;9.110;2024-02-21T08:29:16;19.58;;;3.67;;
28822;SDS011;15961;54.678;9.110;2024-02-21T08:32:02;24.55;;;3.47;;
28822;SDS011;15961;54.678;9.110;2024-02-21T08:34:47;21.15;;;4.05;;
28822;SDS011;15961;54.678;9.110;2024-02-21T08:37:33;33.13;;;6.00;;
28822;SDS011;15961;54.678;9.110;2024-02-21T08:40:19;16.20;;;3.30;;
28822;SDS011;15961;54.678;9.110;2024-02-21T08:43:06;15.30;;;2.83;;
28822;SDS011;15961;54.678;9.110;2024-02-21T08:45:52;16.83;;;3.35;;
28822;SDS011;15961;54.678;9.110;2024-02-21T08:48:38;22.35;;;2.80;;
28822;SDS011;15961;54.678;9.110;2024-02-21T08:51:23;16.77;;;3.55;;
28822;SDS011;15961;54.678;9.110;2024-02-21T08:54:09;17.27;;;3.05;;
28822;SDS011;15961;54.678;9.110;2024-02-21T08:56:54;21.00;;;3.72;;
28822;SDS011;15961;54.678;9.110;2024-02-21T08:59:40;19.23;;;3.25;;
28822;SDS011;15961;54.678;9.110;2024-02-21T09:02:26;19.13;;;3.40;;
28822;SDS011;15961;54.678;9.110;2024-02-21T09:05:11;20.45;;;3.55;;
28822;SDS011;15961;54.678;9.110;2024-02-21T09:07:57;24.33;;;3.72;;
28822;SDS011;15961;54.678;9.110;2024-02-21T09:10:42;19.67;;;4.25;;
28822;SDS011;15961;54.678;9.110;2024-02-21T09:13:28;25.85;;;4.47;;
28822;SDS011;15961;54.678;9.110;2024-02-21T09:16:15;27.42;;;5.00;;
28822;SDS011;15961;54.678;9.110;2024-02-21T09:19:00;24.60;;;3.78;;
28822;SDS011;15961;54.678;9.110;2024-02-21T09:21:46;18.77;;;3.75;;
28822;SDS011;15961;54.678;9.110;2024-02-21T09:24:32;18.58;;;3.70;;
28822;SDS011;15961;54.678;9.110;2024-02-21T09:27:17;22.48;;;4.93;;
28822;SDS011;15961;54.678;9.110;2024-02-21T09:30:03;19.33;;;4.15;;
28822;SDS011;15961;54.678;9.110;2024-02-21T09:32:50;22.98;;;4.35;;
28822;SDS011;15961;54.678;9.110;2024-02-21T09:35:36;17.83;;;4.40;;
28822;SDS011;15961;54.678;9.110;2024-02-21T09:38:22;23.40;;;3.75;;
28822;SDS011;15961;54.678;9.110;2024-02-21T09:43:56;24.05;;;5.13;;
28822;SDS011;15961;54.678;9.110;2024-02-21T09:46:52;23.73;;;3.75;;
28822;SDS011;15961;54.678;9.110;2024-02-21T09:49:41;14.70;;;3.55;;
28822;SDS011;15961;54.678;9.110;2024-02-21T09:52:27;22.70;;;3.50;;
28822;SDS011;15961;54.678;9.110;2024-02-21T09:55:13;16.00;;;4.53;;
28822;SDS011;15961;54.678;9.110;2024-02-21T09:58:03;16.15;;;4.22;;
28822;SDS011;15961;54.678;9.110;2024-02-21T10:00:49;20.20;;;4.35;;
28822;SDS011;15961;54.678;9.110;2024-02-21T10:03:35;32.10;;;4.25;;
28822;SDS011;15961;54.678;9.110;2024-02-21T10:06:21;30.27;;;4.25;;
28822;SDS011;15961;54.678;9.110;2024-02-21T10:09:06;22.30;;;4.50;;
28822;SDS011;15961;54.678;9.110;2024-02-21T10:11:52;22.40;;;4.45;;
28822;SDS011;15961;54.678;9.110;2024-02-21T10:14:38;22.63;;;4.28;;
28822;SDS011;15961;54.678;9.110;2024-02-21T10:17:24;20.65;;;3.88;;
28822;SDS011;15961;54.678;9.110;2024-02-21T10:20:10;12.20;;;2.78;;
28822;SDS011;15961;54.678;9.110;2024-02-21T10:23:00;15.63;;;2.85;;
28822;SDS011;15961;54.678;9.110;2024-02-21T10:28:39;11.88;;;3.03;;
28822;SDS011;15961;54.678;9.110;2024-02-21T10:31:28;16.75;;;3.70;;
28822;SDS011;15961;54.678;9.110;2024-02-21T10:34:16;16.90;;;3.95;;
28822;SDS011;15961;54.678;9.110;2024-02-21T10:37:05;26.90;;;4.65;;
28822;SDS011;15961;54.678;9.110;2024-02-21T10:39:53;20.77;;;3.53;;
28822;SDS011;15961;54.678;9.110;2024-02-21T10:42:39;10.57;;;3.25;;
28822;SDS011;15961;54.678;9.110;2024-02-21T10:48:18;17.13;;;3.85;;
28822;SDS011;15961;54.678;9.110;2024-02-21T10:51:20;22.45;;;4.85;;
28822;SDS011;15961;54.678;9.110;2024-02-21T10:56:59;18.38;;;3.40;;
28822;SDS011;15961;54.678;9.110;2024-02-21T10:59:45;28.05;;;3.63;;
28822;SDS011;15961;54.678;9.110;2024-02-21T11:02:32;23.23;;;4.45;;
28822;SDS011;15961;54.678;9.110;2024-02-21T11:05:18;12.50;;;3.85;;
28822;SDS011;15961;54.678;9.110;2024-02-21T11:08:05;18.10;;;3.72;;
28822;SDS011;15961;54.678;9.110;2024-02-21T11:10:56;16.85;;;4.55;;
28822;SDS011;15961;54.678;9.110;2024-02-21T11:13:42;21.13;;;5.20;;
28822;SDS011;15961;54.678;9.110;2024-02-21T11:16:28;11.55;;;3.70;;
28822;SDS011;15961;54.678;9.110;2024-02-21T11:19:24;14.05;;;3.20;;
28822;SDS011;15961;54.678;9.110;2024-02-21T11:22:14;11.63;;;3.03;;
28822;SDS011;15961;54.678;9.110;2024-02-21T11:25:08;11.60;;;2.92;;
28822;SDS011;15961;54.678;9.110;2024-02-21T11:28:02;10.15;;;3.10;;
28822;SDS011;15961;54.678;9.110;2024-02-21T11:30:48;13.10;;;2.63;;
28822;SDS011;15961;54.678;9.110;2024-02-21T11:33:39;23.20;;;4.95;;
28822;SDS011;15961;54.678;9.110;2024-02-21T11:36:25;14.50;;;4.00;;
28822;SDS011;15961;54.678;9.110;2024-02-21T11:39:11;16.00;;;4.53;;
28822;SDS011;15961;54.678;9.110;2024-02-21T11:42:14;15.85;;;4.85;;
28822;SDS011;15961;54.678;9.110;2024-02-21T11:45:00;15.43;;;3.90;;
28822;SDS011;15961;54.678;9.110;2024-02-21T11:47:46;20.08;;;4.72;;
28822;SDS011;15961;54.678;9.110;2024-02-21T11:50:32;31.52;;;6.03;;
28822;SDS011;15961;54.678;9.110;2024-02-21T11:53:17;17.63;;;4.55;;
28822;SDS011;15961;54.678;9.110;2024-02-21T11:56:03;17.52;;;4.90;;
28822;SDS011;15961;54.678;9.110;2024-02-21T11:58:50;27.25;;;5.50;;
28822;SDS011;15961;54.678;9.110;2024-02-21T12:01:35;17.75;;;5.57;;
28822;SDS011;15961;54.678;9.110;2024-02-21T12:04:21;27.73;;;7.18;;
28822;SDS011;15961;54.678;9.110;2024-02-21T12:07:09;23.08;;;6.28;;
28822;SDS011;15961;54.678;9.110;2024-02-21T12:09:54;19.27;;;5.88;;
28822;SDS011;15961;54.678;9.110;2024-02-21T12:12:40;17.52;;;5.22;;
28822;SDS011;15961;54.678;9.110;2024-02-21T12:15:26;19.33;;;6.07;;
28822;SDS011;15961;54.678;9.110;2024-02-21T12:18:12;22.02;;;6.10;;
28822;SDS011;15961;54.678;9.110;2024-02-21T12:20:58;20.20;;;5.93;;
28822;SDS011;15961;54.678;9.110;2024-02-21T12:23:43;32.70;;;7.68;;
28822;SDS011;15961;54.678;9.110;2024-02-21T12:26:29;30.83;;;6.03;;
28822;SDS011;15961;54.678;9.110;2024-02-21T12:29:15;23.73;;;6.07;;
28822;SDS011;15961;54.678;9.110;2024-02-21T12:32:00;17.13;;;5.50;;
28822;SDS011;15961;54.678;9.110;2024-02-21T12:34:46;21.42;;;6.43;;
28822;SDS011;15961;54.678;9.110;2024-02-21T12:37:32;20.90;;;6.60;;
28822;SDS011;15961;54.678;9.110;2024-02-21T12:40:18;18.67;;;5.60;;
28822;SDS011;15961;54.678;9.110;2024-02-21T12:43:03;11.27;;;4.63;;
28822;SDS011;15961;54.678;9.110;2024-02-21T12:45:49;14.40;;;4.72;;
28822;SDS011;15961;54.678;9.110;2024-02-21T12:48:35;16.42;;;5.22;;
28822;SDS011;15961;54.678;9.110;2024-02-21T12:51:21;15.35;;;5.38;;
28822;SDS011;15961;54.678;9.110;2024-02-21T12:54:06;13.82;;;5.18;;
28822;SDS011;15961;54.678;9.110;2024-02-21T12:56:55;10.55;;;4.28;;
28822;SDS011;15961;54.678;9.110;2024-02-21T12:59:41;11.98;;;4.55;;
28822;SDS011;15961;54.678;9.110;2024-02-21T13:02:26;13.70;;;4.93;;
28822;SDS011;15961;54.678;9.110;2024-02-21T13:05:12;13.45;;;5.60;;
28822;SDS011;15961;54.678;9.110;2024-02-21T13:07:58;11.23;;;5.72;;
28822;SDS011;15961;54.678;9.110;2024-02-21T13:10:44;13.88;;;5.93;;
28822;SDS011;15961;54.678;9.110;2024-02-21T13:13:29;13.95;;;5.93;;
28822;SDS011;15961;54.678;9.110;2024-02-21T13:16:15;21.58;;;5.63;;
28822;SDS011;15961;54.678;9.110;2024-02-21T13:19:00;18.33;;;6.78;;
28822;SDS011;15961;54.678;9.110;2024-02-21T13:21:47;18.92;;;6.38;;
28822;SDS011;15961;54.678;9.110;2024-02-21T13:24:32;18.05;;;6.45;;
28822;SDS011;15961;54.678;9.110;2024-02-21T13:27:18;17.23;;;7.53;;
28822;SDS011;15961;54.678;9.110;2024-02-21T13:30:04;21.15;;;7.20;;
28822;SDS011;15961;54.678;9.110;2024-02-21T13:32:52;24.92;;;7.13;;
28822;SDS011;15961;54.678;9.110;2024-02-21T13:35:39;20.48;;;7.80;;
28822;SDS011;15961;54.678;9.110;2024-02-21T13:38:35;34.70;;;11.68;;
28822;SDS011;15961;54.678;9.110;2024-02-21T13:41:21;24.38;;;8.85;;
28822;SDS011;15961;54.678;9.110;2024-02-21T13:44:08;18.23;;;7.88;;
28822;SDS011;15961;54.678;9.110;2024-02-21T13:46:54;22.92;;;8.02;;
28822;SDS011;15961;54.678;9.110;2024-02-21T13:49:40;27.23;;;7.85;;
28822;SDS011;15961;54.678;9.110;2024-02-21T13:52:26;22.75;;;8.80;;
28822;SDS011;15961;54.678;9.110;2024-02-21T13:55:12;29.67;;;9.05;;
28822;SDS011;15961;54.678;9.110;2024-02-21T13:57:57;35.03;;;12.20;;
28822;SDS011;15961;54.678;9.110;2024-02-21T14:00:43;33.78;;;10.45;;
28822;SDS011;15961;54.678;9.110;2024-02-21T14:03:28;30.58;;;12.57;;
28822;SDS011;15961;54.678;9.110;2024-02-21T14:06:14;39.63;;;12.80;;
28822;SDS011;15961;54.678;9.110;2024-02-21T14:09:00;28.80;;;9.57;;
28822;SDS011;15961;54.678;9.110;2024-02-21T14:11:45;27.38;;;9.38;;
28822;SDS011;15961;54.678;9.110;2024-02-21T14:14:32;24.85;;;9.10;;
28822;SDS011;15961;54.678;9.110;2024-02-21T14:17:18;18.45;;;8.25;;
28822;SDS011;15961;54.678;9.110;2024-02-21T14:20:08;22.35;;;8.93;;
28822;SDS011;15961;54.678;9.110;2024-02-21T14:22:54;30.85;;;10.00;;
28822;SDS011;15961;54.678;9.110;2024-02-21T14:25:39;19.38;;;9.13;;
28822;SDS011;15961;54.678;9.110;2024-02-21T14:28:26;27.23;;;8.88;;
28822;SDS011;15961;54.678;9.110;2024-02-21T14:31:12;29.20;;;10.93;;
28822;SDS011;15961;54.678;9.110;2024-02-21T14:33:58;25.20;;;10.35;;
28822;SDS011;15961;54.678;9.110;2024-02-21T14:36:43;36.35;;;11.55;;
28822;SDS011;15961;54.678;9.110;2024-02-21T14:39:29;30.85;;;11.93;;
28822;SDS011;15961;54.678;9.110;2024-02-21T14:42:15;36.40;;;13.85;;
28822;SDS011;15961;54.678;9.110;2024-02-21T14:45:01;30.60;;;11.35;;
28822;SDS011;15961;54.678;9.110;2024-02-21T14:47:49;37.78;;;12.98;;
28822;SDS011;15961;54.678;9.110;2024-02-21T14:50:35;37.92;;;14.93;;
28822;SDS011;15961;54.678;9.110;2024-02-21T14:53:20;35.40;;;13.52;;
28822;SDS011;15961;54.678;9.110;2024-02-21T14:56:12;33.92;;;11.93;;
28822;SDS011;15961;54.678;9.110;2024-02-21T14:58:58;32.40;;;13.93;;
28822;SDS011;15961;54.678;9.110;2024-02-21T15:01:44;37.13;;;15.40;;
28822;SDS011;15961;54.678;9.110;2024-02-21T15:04:29;35.70;;;13.27;;
28822;SDS011;15961;54.678;9.110;2024-02-21T15:07:16;44.70;;;15.80;;
28822;SDS011;15961;54.678;9.110;2024-02-21T15:10:02;38.03;;;14.27;;
28822;SDS011;15961;54.678;9.110;2024-02-21T15:12:49;35.13;;;14.55;;
28822;SDS011;15961;54.678;9.110;2024-02-21T15:15:34;39.38;;;14.80;;
28822;SDS011;15961;54.678;9.110;2024-02-21T15:18:20;35.55;;;14.63;;
28822;SDS011;15961;54.678;9.110;2024-02-21T15:21:06;41.85;;;14.80;;
28822;SDS011;15961;54.678;9.110;2024-02-21T15:23:52;38.92;;;14.30;;
28822;SDS011;15961;54.678;9.110;2024-02-21T15:26:38;38.05;;;14.48;;
28822;SDS011;15961;54.678;9.110;2024-02-21T15:29:24;34.17;;;13.60;;
28822;SDS011;15961;54.678;9.110;2024-02-21T15:32:09;41.08;;;14.57;;
28822;SDS011;15961;54.678;9.110;2024-02-21T15:34:56;35.38;;;14.35;;
28822;SDS011;15961;54.678;9.110;2024-02-21T15:37:41;40.78;;;13.95;;
28822;SDS011;15961;54.678;9.110;2024-02-21T15:40:27;36.15;;;13.30;;
28822;SDS011;15961;54.678;9.110;2024-02-21T15:43:12;36.03;;;13.95;;
28822;SDS011;15961;54.678;9.110;2024-02-21T15:45:58;31.48;;;13.07;;
28822;SDS011;15961;54.678;9.110;2024-02-21T15:48:44;30.35;;;14.45;;
28822;SDS011;15961;54.678;9.110;2024-02-21T15:51:31;34.05;;;13.52;;
28822;SDS011;15961;54.678;9.110;2024-02-21T15:54:17;41.05;;;13.63;;
28822;SDS011;15961;54.678;9.110;2024-02-21T15:57:03;33.63;;;14.82;;
28822;SDS011;15961;54.678;9.110;2024-02-21T15:59:51;32.70;;;13.18;;
28822;SDS011;15961;54.678;9.110;2024-02-21T16:02:39;36.63;;;13.40;;
28822;SDS011;15961;54.678;9.110;2024-02-21T16:05:28;31.15;;;13.73;;
28822;SDS011;15961;54.678;9.110;2024-02-21T16:08:13;36.97;;;12.18;;
28822;SDS011;15961;54.678;9.110;2024-02-21T16:10:59;27.55;;;13.57;;
28822;SDS011;15961;54.678;9.110;2024-02-21T16:13:45;36.38;;;13.35;;
28822;SDS011;15961;54.678;9.110;2024-02-21T16:16:31;27.30;;;11.18;;
28822;SDS011;15961;54.678;9.110;2024-02-21T16:19:17;36.35;;;13.40;;
28822;SDS011;15961;54.678;9.110;2024-02-21T16:22:03;30.65;;;12.50;;
28822;SDS011;15961;54.678;9.110;2024-02-21T16:24:50;23.65;;;12.43;;
28822;SDS011;15961;54.678;9.110;2024-02-21T16:27:35;31.25;;;12.27;;
28822;SDS011;15961;54.678;9.110;2024-02-21T16:30:22;25.52;;;11.90;;
28822;SDS011;15961;54.678;9.110;2024-02-21T16:33:08;29.80;;;12.15;;
28822;SDS011;15961;54.678;9.110;2024-02-21T16:35:54;27.65;;;12.80;;
28822;SDS011;15961;54.678;9.110;2024-02-21T16:38:40;30.20;;;12.80;;
28822;SDS011;15961;54.678;9.110;2024-02-21T16:41:26;30.38;;;11.15;;